sensor_id;sensor_type;location;lat;lon;timestamp;P1;P2;P0
67892;PMS7003;54688;52.376;16.744;2023-08-21T00:01:01;10;8;
67892;PMS7003;54688;52.376;16.744;2023-08-21T00:04:15;8;8;
67892;PMS7003;54688;52.376;16.744;2023-08-21T00:07:18;13;10;
67892;PMS7003;54688;52.376;16.744;2023-08-21T00:10:20;9;9;
67892;PMS7003;54688;52.376;16.744;2023-08-21T00:13:22;7;7;
67892;PMS7003;54688;52.376;16.744;2023-08-21T00:16:24;9;9;
67892;PMS7003;54688;52.376;16.744;2023-08-21T00:19:26;6;6;
67892;PMS7003;54688;52.376;16.744;2023-08-21T00:22:28;10;7;
67892;PMS7003;54688;52.376;16.744;2023-08-21T00:25:30;9;8;
67892;PMS7003;54688;52.376;16.744;2023-08-21T00:28:31;11;10;
67892;PMS7003;54688;52.376;16.744;2023-08-21T00:31:34;9;9;
67892;PMS7003;54688;52.376;16.744;2023-08-21T00:34:36;10;10;
67892;PMS7003;54688;52.376;16.744;2023-08-21T00:37:38;10;8;
67892;PMS7003;54688;52.376;16.744;2023-08-21T00:40:39;7;6;
67892;PMS7003;54688;52.376;16.744;2023-08-21T00:43:42;11;8;
67892;PMS7003;54688;52.376;16.744;2023-08-21T00:46:44;9;9;
67892;PMS7003;54688;52.376;16.744;2023-08-21T00:49:46;8;8;
67892;PMS7003;54688;52.376;16.744;2023-08-21T00:52:49;8;7;
67892;PMS7003;54688;52.376;16.744;2023-08-21T00:55:51;8;8;
67892;PMS7003;54688;52.376;16.744;2023-08-21T00:58:54;7;7;
67892;PMS7003;54688;52.376;16.744;2023-08-21T01:01:56;7;6;
67892;PMS7003;54688;52.376;16.744;2023-08-21T01:04:59;7;7;
67892;PMS7003;54688;52.376;16.744;2023-08-21T01:08:03;9;8;
67892;PMS7003;54688;52.376;16.744;2023-08-21T01:11:11;5;5;
67892;PMS7003;54688;52.376;16.744;2023-08-21T01:14:22;9;7;
67892;PMS7003;54688;52.376;16.744;2023-08-21T01:17:28;9;7;
67892;PMS7003;54688;52.376;16.744;2023-08-21T01:20:31;11;6;
67892;PMS7003;54688;52.376;16.744;2023-08-21T01:23:34;5;5;
67892;PMS7003;54688;52.376;16.744;2023-08-21T01:26:36;9;8;
67892;PMS7003;54688;52.376;16.744;2023-08-21T01:29:37;10;9;
67892;PMS7003;54688;52.376;16.744;2023-08-21T01:32:45;10;8;
67892;PMS7003;54688;52.376;16.744;2023-08-21T01:35:50;9;8;
67892;PMS7003;54688;52.376;16.744;2023-08-21T01:38:53;10;7;
67892;PMS7003;54688;52.376;16.744;2023-08-21T01:41:56;12;8;
67892;PMS7003;54688;52.376;16.744;2023-08-21T01:44:58;7;7;
67892;PMS7003;54688;52.376;16.744;2023-08-21T01:48:01;6;6;
67892;PMS7003;54688;52.376;16.744;2023-08-21T01:51:04;9;8;
67892;PMS7003;54688;52.376;16.744;2023-08-21T01:54:05;6;6;
67892;PMS7003;54688;52.376;16.744;2023-08-21T01:57:08;8;7;
67892;PMS7003;54688;52.376;16.744;2023-08-21T02:00:11;10;9;
67892;PMS7003;54688;52.376;16.744;2023-08-21T02:03:14;12;10;
67892;PMS7003;54688;52.376;16.744;2023-08-21T02:06:16;9;9;
67892;PMS7003;54688;52.376;16.744;2023-08-21T02:09:18;8;7;
67892;PMS7003;54688;52.376;16.744;2023-08-21T02:12:20;11;10;
67892;PMS7003;54688;52.376;16.744;2023-08-21T02:15:22;6;6;
67892;PMS7003;54688;52.376;16.744;2023-08-21T02:18:24;11;11;
67892;PMS7003;54688;52.376;16.744;2023-08-21T02:21:27;9;9;
67892;PMS7003;54688;52.376;16.744;2023-08-21T02:24:28;12;9;
67892;PMS7003;54688;52.376;16.744;2023-08-21T02:27:30;10;8;
67892;PMS7003;54688;52.376;16.744;2023-08-21T02:30:32;9;8;
67892;PMS7003;54688;52.376;16.744;2023-08-21T02:33:34;7;7;
67892;PMS7003;54688;52.376;16.744;2023-08-21T02:39:35;11;9;
67892;PMS7003;54688;52.376;16.744;2023-08-21T02:42:38;9;9;
67892;PMS7003;54688;52.376;16.744;2023-08-21T02:45:40;8;8;
67892;PMS7003;54688;52.376;16.744;2023-08-21T02:48:43;13;10;
67892;PMS7003;54688;52.376;16.744;2023-08-21T02:51:45;11;8;
67892;PMS7003;54688;52.376;16.744;2023-08-21T02:54:48;13;10;
67892;PMS7003;54688;52.376;16.744;2023-08-21T02:57:50;12;9;
67892;PMS7003;54688;52.376;16.744;2023-08-21T03:00:51;13;10;
67892;PMS7003;54688;52.376;16.744;2023-08-21T03:03:54;8;8;
67892;PMS7003;54688;52.376;16.744;2023-08-21T03:06:55;9;9;
67892;PMS7003;54688;52.376;16.744;2023-08-21T03:09:57;12;10;
67892;PMS7003;54688;52.376;16.744;2023-08-21T03:12:59;13;11;
67892;PMS7003;54688;52.376;16.744;2023-08-21T03:16:01;12;11;
67892;PMS7003;54688;52.376;16.744;2023-08-21T03:19:03;13;13;
67892;PMS7003;54688;52.376;16.744;2023-08-21T03:22:06;11;10;
67892;PMS7003;54688;52.376;16.744;2023-08-21T03:25:08;11;10;
67892;PMS7003;54688;52.376;16.744;2023-08-21T03:28:11;11;11;
67892;PMS7003;54688;52.376;16.744;2023-08-21T03:31:13;11;11;
67892;PMS7003;54688;52.376;16.744;2023-08-21T03:34:14;13;11;
67892;PMS7003;54688;52.376;16.744;2023-08-21T03:37:16;12;11;
67892;PMS7003;54688;52.376;16.744;2023-08-21T03:40:19;16;11;
67892;PMS7003;54688;52.376;16.744;2023-08-21T03:43:21;13;10;
67892;PMS7003;54688;52.376;16.744;2023-08-21T03:46:22;9;9;
67892;PMS7003;54688;52.376;16.744;2023-08-21T03:49:24;13;10;
67892;PMS7003;54688;52.376;16.744;2023-08-21T03:52:26;11;8;
67892;PMS7003;54688;52.376;16.744;2023-08-21T03:58:27;8;8;
67892;PMS7003;54688;52.376;16.744;2023-08-21T04:01:30;9;9;
67892;PMS7003;54688;52.376;16.744;2023-08-21T04:04:32;14;13;
67892;PMS7003;54688;52.376;16.744;2023-08-21T04:07:34;13;12;
67892;PMS7003;54688;52.376;16.744;2023-08-21T04:10:36;12;12;
67892;PMS7003;54688;52.376;16.744;2023-08-21T04:13:38;14;11;
67892;PMS7003;54688;52.376;16.744;2023-08-21T04:16:40;15;10;
67892;PMS7003;54688;52.376;16.744;2023-08-21T04:19:42;11;9;
67892;PMS7003;54688;52.376;16.744;2023-08-21T04:22:44;12;12;
67892;PMS7003;54688;52.376;16.744;2023-08-21T04:25:46;9;9;
67892;PMS7003;54688;52.376;16.744;2023-08-21T04:28:48;10;9;
67892;PMS7003;54688;52.376;16.744;2023-08-21T04:31:50;15;12;
67892;PMS7003;54688;52.376;16.744;2023-08-21T04:34:52;10;8;
67892;PMS7003;54688;52.376;16.744;2023-08-21T04:37:55;11;11;
67892;PMS7003;54688;52.376;16.744;2023-08-21T04:41:05;15;12;
67892;PMS7003;54688;52.376;16.744;2023-08-21T04:44:07;10;10;
67892;PMS7003;54688;52.376;16.744;2023-08-21T04:47:26;15;14;
67892;PMS7003;54688;52.376;16.744;2023-08-21T04:50:28;14;10;
67892;PMS7003;54688;52.376;16.744;2023-08-21T04:53:30;14;11;
67892;PMS7003;54688;52.376;16.744;2023-08-21T04:56:32;13;11;
67892;PMS7003;54688;52.376;16.744;2023-08-21T04:59:35;9;8;
67892;PMS7003;54688;52.376;16.744;2023-08-21T05:02:37;12;11;
67892;PMS7003;54688;52.376;16.744;2023-08-21T05:05:38;9;9;
67892;PMS7003;54688;52.376;16.744;2023-08-21T05:08:40;16;14;
67892;PMS7003;54688;52.376;16.744;2023-08-21T05:11:42;18;11;
67892;PMS7003;54688;52.376;16.744;2023-08-21T05:14:44;19;16;
67892;PMS7003;54688;52.376;16.744;2023-08-21T05:17:46;14;12;
67892;PMS7003;54688;52.376;16.744;2023-08-21T05:20:50;12;12;
67892;PMS7003;54688;52.376;16.744;2023-08-21T05:23:52;12;12;
67892;PMS7003;54688;52.376;16.744;2023-08-21T05:26:54;13;12;
67892;PMS7003;54688;52.376;16.744;2023-08-21T05:29:56;12;11;
67892;PMS7003;54688;52.376;16.744;2023-08-21T05:32:58;11;10;
67892;PMS7003;54688;52.376;16.744;2023-08-21T05:35:59;12;10;
67892;PMS7003;54688;52.376;16.744;2023-08-21T05:39:02;12;11;
67892;PMS7003;54688;52.376;16.744;2023-08-21T05:42:05;8;8;
67892;PMS7003;54688;52.376;16.744;2023-08-21T05:45:07;7;7;
67892;PMS7003;54688;52.376;16.744;2023-08-21T05:48:09;9;6;
67892;PMS7003;54688;52.376;16.744;2023-08-21T05:51:12;6;5;
67892;PMS7003;54688;52.376;16.744;2023-08-21T05:54:14;8;6;
67892;PMS7003;54688;52.376;16.744;2023-08-21T05:57:16;3;3;
67892;PMS7003;54688;52.376;16.744;2023-08-21T06:00:19;10;6;
67892;PMS7003;54688;52.376;16.744;2023-08-21T06:03:21;6;4;
67892;PMS7003;54688;52.376;16.744;2023-08-21T06:06:24;5;4;
67892;PMS7003;54688;52.376;16.744;2023-08-21T06:09:26;6;6;
67892;PMS7003;54688;52.376;16.744;2023-08-21T06:12:29;8;5;
67892;PMS7003;54688;52.376;16.744;2023-08-21T06:15:30;7;6;
67892;PMS7003;54688;52.376;16.744;2023-08-21T06:18:33;8;6;
67892;PMS7003;54688;52.376;16.744;2023-08-21T06:21:35;5;5;
67892;PMS7003;54688;52.376;16.744;2023-08-21T06:30:35;7;6;
67892;PMS7003;54688;52.376;16.744;2023-08-21T06:33:37;7;5;
67892;PMS7003;54688;52.376;16.744;2023-08-21T06:36:39;5;5;
67892;PMS7003;54688;52.376;16.744;2023-08-21T06:39:41;5;5;
67892;PMS7003;54688;52.376;16.744;2023-08-21T06:42:44;5;5;
67892;PMS7003;54688;52.376;16.744;2023-08-21T06:45:46;8;6;
67892;PMS7003;54688;52.376;16.744;2023-08-21T06:48:48;6;6;
67892;PMS7003;54688;52.376;16.744;2023-08-21T06:51:50;5;5;
67892;PMS7003;54688;52.376;16.744;2023-08-21T06:54:53;6;5;
67892;PMS7003;54688;52.376;16.744;2023-08-21T06:57:55;7;5;
67892;PMS7003;54688;52.376;16.744;2023-08-21T07:00:59;6;4;
67892;PMS7003;54688;52.376;16.744;2023-08-21T07:04:02;6;4;
67892;PMS7003;54688;52.376;16.744;2023-08-21T07:07:04;10;5;
67892;PMS7003;54688;52.376;16.744;2023-08-21T07:10:07;4;4;
67892;PMS7003;54688;52.376;16.744;2023-08-21T07:13:10;7;6;
67892;PMS7003;54688;52.376;16.744;2023-08-21T07:16:12;6;6;
67892;PMS7003;54688;52.376;16.744;2023-08-21T07:19:16;4;4;
67892;PMS7003;54688;52.376;16.744;2023-08-21T07:22:18;4;4;
67892;PMS7003;54688;52.376;16.744;2023-08-21T07:25:21;6;5;
67892;PMS7003;54688;52.376;16.744;2023-08-21T07:28:23;4;4;
67892;PMS7003;54688;52.376;16.744;2023-08-21T07:31:25;4;4;
67892;PMS7003;54688;52.376;16.744;2023-08-21T07:34:27;5;4;
67892;PMS7003;54688;52.376;16.744;2023-08-21T07:37:30;4;4;
67892;PMS7003;54688;52.376;16.744;2023-08-21T07:40:32;3;3;
67892;PMS7003;54688;52.376;16.744;2023-08-21T07:43:35;4;2;
67892;PMS7003;54688;52.376;16.744;2023-08-21T07:46:37;4;4;
67892;PMS7003;54688;52.376;16.744;2023-08-21T07:49:39;4;4;
67892;PMS7003;54688;52.376;16.744;2023-08-21T07:52:41;4;4;
67892;PMS7003;54688;52.376;16.744;2023-08-21T07:55:44;8;6;
67892;PMS7003;54688;52.376;16.744;2023-08-21T07:58:46;3;3;
67892;PMS7003;54688;52.376;16.744;2023-08-21T08:01:48;4;4;
67892;PMS7003;54688;52.376;16.744;2023-08-21T08:04:50;3;3;
67892;PMS7003;54688;52.376;16.744;2023-08-21T08:07:53;4;4;
67892;PMS7003;54688;52.376;16.744;2023-08-21T08:10:55;4;4;
67892;PMS7003;54688;52.376;16.744;2023-08-21T08:13:56;3;3;
67892;PMS7003;54688;52.376;16.744;2023-08-21T08:16:59;4;2;
67892;PMS7003;54688;52.376;16.744;2023-08-21T08:20:02;2;2;
67892;PMS7003;54688;52.376;16.744;2023-08-21T08:23:05;3;3;
67892;PMS7003;54688;52.376;16.744;2023-08-21T08:26:07;2;2;
67892;PMS7003;54688;52.376;16.744;2023-08-21T08:29:09;5;4;
67892;PMS7003;54688;52.376;16.744;2023-08-21T08:32:12;2;2;
67892;PMS7003;54688;52.376;16.744;2023-08-21T08:35:13;3;3;
67892;PMS7003;54688;52.376;16.744;2023-08-21T08:38:16;5;3;
67892;PMS7003;54688;52.376;16.744;2023-08-21T08:41:24;3;3;
67892;PMS7003;54688;52.376;16.744;2023-08-21T08:44:26;1;1;
67892;PMS7003;54688;52.376;16.744;2023-08-21T08:47:30;9;4;
67892;PMS7003;54688;52.376;16.744;2023-08-21T08:50:34;3;3;
67892;PMS7003;54688;52.376;16.744;2023-08-21T08:53:36;3;2;
67892;PMS7003;54688;52.376;16.744;2023-08-21T08:56:38;2;2;
67892;PMS7003;54688;52.376;16.744;2023-08-21T08:59:41;5;3;
67892;PMS7003;54688;52.376;16.744;2023-08-21T09:02:43;2;2;
67892;PMS7003;54688;52.376;16.744;2023-08-21T09:05:46;3;3;
67892;PMS7003;54688;52.376;16.744;2023-08-21T09:08:53;4;3;
67892;PMS7003;54688;52.376;16.744;2023-08-21T09:11:56;3;3;
67892;PMS7003;54688;52.376;16.744;2023-08-21T09:14:59;3;3;
67892;PMS7003;54688;52.376;16.744;2023-08-21T09:18:00;6;4;
67892;PMS7003;54688;52.376;16.744;2023-08-21T09:21:02;5;3;
67892;PMS7003;54688;52.376;16.744;2023-08-21T09:24:05;3;3;
67892;PMS7003;54688;52.376;16.744;2023-08-21T09:27:16;6;5;
67892;PMS7003;54688;52.376;16.744;2023-08-21T09:30:19;3;2;
67892;PMS7003;54688;52.376;16.744;2023-08-21T09:33:22;5;3;
67892;PMS7003;54688;52.376;16.744;2023-08-21T09:36:25;3;3;
67892;PMS7003;54688;52.376;16.744;2023-08-21T09:39:33;6;3;
67892;PMS7003;54688;52.376;16.744;2023-08-21T09:42:35;5;3;
67892;PMS7003;54688;52.376;16.744;2023-08-21T09:45:37;4;4;
67892;PMS7003;54688;52.376;16.744;2023-08-21T09:51:39;5;3;
67892;PMS7003;54688;52.376;16.744;2023-08-21T09:54:42;4;4;
67892;PMS7003;54688;52.376;16.744;2023-08-21T09:57:45;4;4;
67892;PMS7003;54688;52.376;16.744;2023-08-21T10:00:49;4;4;
67892;PMS7003;54688;52.376;16.744;2023-08-21T10:03:53;3;3;
67892;PMS7003;54688;52.376;16.744;2023-08-21T10:06:56;6;5;
67892;PMS7003;54688;52.376;16.744;2023-08-21T10:09:58;4;4;
67892;PMS7003;54688;52.376;16.744;2023-08-21T10:13:02;4;4;
67892;PMS7003;54688;52.376;16.744;2023-08-21T10:16:05;4;3;
67892;PMS7003;54688;52.376;16.744;2023-08-21T10:19:08;4;4;
67892;PMS7003;54688;52.376;16.744;2023-08-21T10:22:10;6;4;
67892;PMS7003;54688;52.376;16.744;2023-08-21T10:25:15;5;4;
67892;PMS7003;54688;52.376;16.744;2023-08-21T10:28:17;5;3;
67892;PMS7003;54688;52.376;16.744;2023-08-21T10:31:35;4;4;
67892;PMS7003;54688;52.376;16.744;2023-08-21T10:34:37;5;4;
67892;PMS7003;54688;52.376;16.744;2023-08-21T10:38:05;3;3;
67892;PMS7003;54688;52.376;16.744;2023-08-21T10:41:08;4;4;
67892;PMS7003;54688;52.376;16.744;2023-08-21T10:44:11;4;3;
67892;PMS7003;54688;52.376;16.744;2023-08-21T10:47:15;10;5;
67892;PMS7003;54688;52.376;16.744;2023-08-21T10:50:17;3;3;
67892;PMS7003;54688;52.376;16.744;2023-08-21T10:53:21;4;4;
67892;PMS7003;54688;52.376;16.744;2023-08-21T10:56:25;5;5;
67892;PMS7003;54688;52.376;16.744;2023-08-21T10:59:27;7;5;
67892;PMS7003;54688;52.376;16.744;2023-08-21T11:02:31;6;6;
67892;PMS7003;54688;52.376;16.744;2023-08-21T11:05:33;7;7;
67892;PMS7003;54688;52.376;16.744;2023-08-21T11:08:35;7;6;
67892;PMS7003;54688;52.376;16.744;2023-08-21T11:11:37;3;3;
67892;PMS7003;54688;52.376;16.744;2023-08-21T11:14:40;5;4;
67892;PMS7003;54688;52.376;16.744;2023-08-21T11:17:50;3;3;
67892;PMS7003;54688;52.376;16.744;2023-08-21T11:20:52;5;5;
67892;PMS7003;54688;52.376;16.744;2023-08-21T11:24:04;4;4;
67892;PMS7003;54688;52.376;16.744;2023-08-21T11:27:09;4;4;
67892;PMS7003;54688;52.376;16.744;2023-08-21T11:30:12;4;4;
67892;PMS7003;54688;52.376;16.744;2023-08-21T11:33:13;6;5;
67892;PMS7003;54688;52.376;16.744;2023-08-21T11:36:16;5;5;
67892;PMS7003;54688;52.376;16.744;2023-08-21T11:39:18;6;6;
67892;PMS7003;54688;52.376;16.744;2023-08-21T11:42:22;5;5;
67892;PMS7003;54688;52.376;16.744;2023-08-21T11:45:25;7;4;
67892;PMS7003;54688;52.376;16.744;2023-08-21T11:48:27;7;5;
67892;PMS7003;54688;52.376;16.744;2023-08-21T11:51:37;5;4;
67892;PMS7003;54688;52.376;16.744;2023-08-21T11:54:41;3;3;
67892;PMS7003;54688;52.376;16.744;2023-08-21T11:57:46;5;5;
67892;PMS7003;54688;52.376;16.744;2023-08-21T12:00:48;5;5;
67892;PMS7003;54688;52.376;16.744;2023-08-21T12:03:51;4;4;
67892;PMS7003;54688;52.376;16.744;2023-08-21T12:06:53;6;6;
67892;PMS7003;54688;52.376;16.744;2023-08-21T12:09:55;5;5;
67892;PMS7003;54688;52.376;16.744;2023-08-21T12:12:58;5;5;
67892;PMS7003;54688;52.376;16.744;2023-08-21T12:16:00;5;5;
67892;PMS7003;54688;52.376;16.744;2023-08-21T12:19:03;7;5;
67892;PMS7003;54688;52.376;16.744;2023-08-21T12:22:05;6;4;
67892;PMS7003;54688;52.376;16.744;2023-08-21T12:25:08;5;5;
67892;PMS7003;54688;52.376;16.744;2023-08-21T12:28:11;4;4;
67892;PMS7003;54688;52.376;16.744;2023-08-21T12:31:13;4;4;
67892;PMS7003;54688;52.376;16.744;2023-08-21T12:34:15;5;5;
67892;PMS7003;54688;52.376;16.744;2023-08-21T12:37:17;5;4;
67892;PMS7003;54688;52.376;16.744;2023-08-21T12:40:19;7;4;
67892;PMS7003;54688;52.376;16.744;2023-08-21T12:43:22;6;5;
67892;PMS7003;54688;52.376;16.744;2023-08-21T12:46:24;6;6;
67892;PMS7003;54688;52.376;16.744;2023-08-21T12:49:26;6;6;
67892;PMS7003;54688;52.376;16.744;2023-08-21T12:55:29;7;5;
67892;PMS7003;54688;52.376;16.744;2023-08-21T12:58:31;6;4;
67892;PMS7003;54688;52.376;16.744;2023-08-21T13:04:32;5;4;
67892;PMS7003;54688;52.376;16.744;2023-08-21T13:07:35;7;5;
67892;PMS7003;54688;52.376;16.744;2023-08-21T13:10:37;7;5;
67892;PMS7003;54688;52.376;16.744;2023-08-21T13:13:39;7;7;
67892;PMS7003;54688;52.376;16.744;2023-08-21T13:16:42;6;4;
67892;PMS7003;54688;52.376;16.744;2023-08-21T13:19:44;7;6;
67892;PMS7003;54688;52.376;16.744;2023-08-21T13:22:47;4;4;
67892;PMS7003;54688;52.376;16.744;2023-08-21T13:25:49;6;6;
67892;PMS7003;54688;52.376;16.744;2023-08-21T13:28:52;4;4;
67892;PMS7003;54688;52.376;16.744;2023-08-21T13:31:54;7;6;
67892;PMS7003;54688;52.376;16.744;2023-08-21T13:34:57;6;5;
67892;PMS7003;54688;52.376;16.744;2023-08-21T13:37:59;6;6;
67892;PMS7003;54688;52.376;16.744;2023-08-21T13:41:01;6;6;
67892;PMS7003;54688;52.376;16.744;2023-08-21T13:44:03;5;5;
67892;PMS7003;54688;52.376;16.744;2023-08-21T13:47:05;6;5;
67892;PMS7003;54688;52.376;16.744;2023-08-21T13:50:08;6;5;
67892;PMS7003;54688;52.376;16.744;2023-08-21T13:53:10;8;7;
67892;PMS7003;54688;52.376;16.744;2023-08-21T13:59:13;7;7;
67892;PMS7003;54688;52.376;16.744;2023-08-21T14:02:15;6;6;
67892;PMS7003;54688;52.376;16.744;2023-08-21T14:05:17;8;5;
67892;PMS7003;54688;52.376;16.744;2023-08-21T14:08:20;7;7;
67892;PMS7003;54688;52.376;16.744;2023-08-21T14:11:22;5;5;
67892;PMS7003;54688;52.376;16.744;2023-08-21T14:14:24;6;6;
67892;PMS7003;54688;52.376;16.744;2023-08-21T14:17:27;6;6;
67892;PMS7003;54688;52.376;16.744;2023-08-21T14:20:29;9;7;
67892;PMS7003;54688;52.376;16.744;2023-08-21T14:23:31;9;7;
67892;PMS7003;54688;52.376;16.744;2023-08-21T14:26:33;7;7;
67892;PMS7003;54688;52.376;16.744;2023-08-21T14:29:34;7;6;
67892;PMS7003;54688;52.376;16.744;2023-08-21T14:32:37;7;7;
67892;PMS7003;54688;52.376;16.744;2023-08-21T14:35:39;5;5;
67892;PMS7003;54688;52.376;16.744;2023-08-21T14:38:41;6;6;
67892;PMS7003;54688;52.376;16.744;2023-08-21T14:41:44;7;7;
67892;PMS7003;54688;52.376;16.744;2023-08-21T14:44:46;6;5;
67892;PMS7003;54688;52.376;16.744;2023-08-21T14:47:48;8;8;
67892;PMS7003;54688;52.376;16.744;2023-08-21T14:50:51;7;7;
67892;PMS7003;54688;52.376;16.744;2023-08-21T14:53:53;10;7;
67892;PMS7003;54688;52.376;16.744;2023-08-21T14:56:55;6;6;
67892;PMS7003;54688;52.376;16.744;2023-08-21T14:59:57;5;5;
67892;PMS7003;54688;52.376;16.744;2023-08-21T15:02:59;6;6;
67892;PMS7003;54688;52.376;16.744;2023-08-21T15:06:02;10;7;
67892;PMS7003;54688;52.376;16.744;2023-08-21T15:09:05;5;5;
67892;PMS7003;54688;52.376;16.744;2023-08-21T15:12:08;7;7;
67892;PMS7003;54688;52.376;16.744;2023-08-21T15:18:09;6;6;
67892;PMS7003;54688;52.376;16.744;2023-08-21T15:21:12;6;4;
67892;PMS7003;54688;52.376;16.744;2023-08-21T15:24:14;5;5;
67892;PMS7003;54688;52.376;16.744;2023-08-21T15:27:16;6;4;
67892;PMS7003;54688;52.376;16.744;2023-08-21T15:30:18;7;6;
67892;PMS7003;54688;52.376;16.744;2023-08-21T15:33:20;6;6;
67892;PMS7003;54688;52.376;16.744;2023-08-21T15:36:23;6;6;
67892;PMS7003;54688;52.376;16.744;2023-08-21T15:39:25;5;5;
67892;PMS7003;54688;52.376;16.744;2023-08-21T15:42:27;7;5;
67892;PMS7003;54688;52.376;16.744;2023-08-21T15:45:29;3;3;
67892;PMS7003;54688;52.376;16.744;2023-08-21T15:48:33;5;5;
67892;PMS7003;54688;52.376;16.744;2023-08-21T15:51:35;5;5;
67892;PMS7003;54688;52.376;16.744;2023-08-21T15:54:37;3;3;
67892;PMS7003;54688;52.376;16.744;2023-08-21T15:57:40;4;4;
67892;PMS7003;54688;52.376;16.744;2023-08-21T16:00:42;4;4;
67892;PMS7003;54688;52.376;16.744;2023-08-21T16:03:45;3;3;
67892;PMS7003;54688;52.376;16.744;2023-08-21T16:06:47;2;2;
67892;PMS7003;54688;52.376;16.744;2023-08-21T16:09:49;5;5;
67892;PMS7003;54688;52.376;16.744;2023-08-21T16:15:51;3;3;
67892;PMS7003;54688;52.376;16.744;2023-08-21T16:18:54;4;4;
67892;PMS7003;54688;52.376;16.744;2023-08-21T16:21:56;5;5;
67892;PMS7003;54688;52.376;16.744;2023-08-21T16:24:57;3;3;
67892;PMS7003;54688;52.376;16.744;2023-08-21T16:28:00;7;5;
67892;PMS7003;54688;52.376;16.744;2023-08-21T16:31:02;5;5;
67892;PMS7003;54688;52.376;16.744;2023-08-21T16:34:05;4;4;
67892;PMS7003;54688;52.376;16.744;2023-08-21T16:37:07;4;4;
67892;PMS7003;54688;52.376;16.744;2023-08-21T16:40:10;5;5;
67892;PMS7003;54688;52.376;16.744;2023-08-21T16:43:12;3;3;
67892;PMS7003;54688;52.376;16.744;2023-08-21T16:46:15;4;4;
67892;PMS7003;54688;52.376;16.744;2023-08-21T16:49:17;6;6;
67892;PMS7003;54688;52.376;16.744;2023-08-21T16:52:19;6;5;
67892;PMS7003;54688;52.376;16.744;2023-08-21T16:55:22;5;5;
67892;PMS7003;54688;52.376;16.744;2023-08-21T16:58:24;7;5;
67892;PMS7003;54688;52.376;16.744;2023-08-21T17:01:27;6;6;
67892;PMS7003;54688;52.376;16.744;2023-08-21T17:04:29;4;4;
67892;PMS7003;54688;52.376;16.744;2023-08-21T17:07:31;5;3;
67892;PMS7003;54688;52.376;16.744;2023-08-21T17:10:33;8;5;
67892;PMS7003;54688;52.376;16.744;2023-08-21T17:13:36;6;6;
67892;PMS7003;54688;52.376;16.744;2023-08-21T17:16:38;9;6;
67892;PMS7003;54688;52.376;16.744;2023-08-21T17:19:41;7;6;
67892;PMS7003;54688;52.376;16.744;2023-08-21T17:22:43;6;5;
67892;PMS7003;54688;52.376;16.744;2023-08-21T17:25:45;7;6;
67892;PMS7003;54688;52.376;16.744;2023-08-21T17:28:55;7;7;
67892;PMS7003;54688;52.376;16.744;2023-08-21T17:31:57;6;6;
67892;PMS7003;54688;52.376;16.744;2023-08-21T17:34:59;7;6;
67892;PMS7003;54688;52.376;16.744;2023-08-21T17:38:01;8;6;
67892;PMS7003;54688;52.376;16.744;2023-08-21T17:41:03;6;5;
67892;PMS7003;54688;52.376;16.744;2023-08-21T17:44:05;4;4;
67892;PMS7003;54688;52.376;16.744;2023-08-21T17:47:07;4;4;
67892;PMS7003;54688;52.376;16.744;2023-08-21T17:50:09;4;4;
67892;PMS7003;54688;52.376;16.744;2023-08-21T17:53:11;6;4;
67892;PMS7003;54688;52.376;16.744;2023-08-21T17:56:14;3;3;
67892;PMS7003;54688;52.376;16.744;2023-08-21T17:59:16;3;3;
67892;PMS7003;54688;52.376;16.744;2023-08-21T18:02:18;5;4;
67892;PMS7003;54688;52.376;16.744;2023-08-21T18:05:20;4;4;
67892;PMS7003;54688;52.376;16.744;2023-08-21T18:08:22;3;3;
67892;PMS7003;54688;52.376;16.744;2023-08-21T18:11:24;3;3;
67892;PMS7003;54688;52.376;16.744;2023-08-21T18:14:26;3;3;
67892;PMS7003;54688;52.376;16.744;2023-08-21T18:17:29;3;3;
67892;PMS7003;54688;52.376;16.744;2023-08-21T18:20:48;2;2;
67892;PMS7003;54688;52.376;16.744;2023-08-21T18:23:50;2;2;
67892;PMS7003;54688;52.376;16.744;2023-08-21T18:26:52;2;2;
67892;PMS7003;54688;52.376;16.744;2023-08-21T18:29:55;2;1;
67892;PMS7003;54688;52.376;16.744;2023-08-21T18:32:57;3;3;
67892;PMS7003;54688;52.376;16.744;2023-08-21T18:35:59;3;2;
67892;PMS7003;54688;52.376;16.744;2023-08-21T18:39:02;2;2;
67892;PMS7003;54688;52.376;16.744;2023-08-21T18:42:04;3;2;
67892;PMS7003;54688;52.376;16.744;2023-08-21T18:45:07;2;2;
67892;PMS7003;54688;52.376;16.744;2023-08-21T18:48:09;3;3;
67892;PMS7003;54688;52.376;16.744;2023-08-21T18:51:11;2;2;
67892;PMS7003;54688;52.376;16.744;2023-08-21T18:54:13;1;1;
67892;PMS7003;54688;52.376;16.744;2023-08-21T18:57:14;3;3;
67892;PMS7003;54688;52.376;16.744;2023-08-21T19:00:16;3;3;
67892;PMS7003;54688;52.376;16.744;2023-08-21T19:03:19;1;1;
67892;PMS7003;54688;52.376;16.744;2023-08-21T19:06:21;2;2;
67892;PMS7003;54688;52.376;16.744;2023-08-21T19:09:23;3;3;
67892;PMS7003;54688;52.376;16.744;2023-08-21T19:12:25;4;4;
67892;PMS7003;54688;52.376;16.744;2023-08-21T19:15:28;3;3;
67892;PMS7003;54688;52.376;16.744;2023-08-21T19:18:30;3;3;
67892;PMS7003;54688;52.376;16.744;2023-08-21T19:21:32;3;3;
67892;PMS7003;54688;52.376;16.744;2023-08-21T19:24:35;3;3;
67892;PMS7003;54688;52.376;16.744;2023-08-21T19:27:36;5;4;
67892;PMS7003;54688;52.376;16.744;2023-08-21T19:30:39;5;5;
67892;PMS7003;54688;52.376;16.744;2023-08-21T19:33:41;6;3;
67892;PMS7003;54688;52.376;16.744;2023-08-21T19:36:43;4;2;
67892;PMS7003;54688;52.376;16.744;2023-08-21T19:39:44;6;4;
67892;PMS7003;54688;52.376;16.744;2023-08-21T19:42:47;4;4;
67892;PMS7003;54688;52.376;16.744;2023-08-21T19:45:53;2;2;
67892;PMS7003;54688;52.376;16.744;2023-08-21T19:48:55;3;3;
67892;PMS7003;54688;52.376;16.744;2023-08-21T19:51:58;2;2;
67892;PMS7003;54688;52.376;16.744;2023-08-21T19:58:00;4;4;
67892;PMS7003;54688;52.376;16.744;2023-08-21T20:01:04;5;5;
67892;PMS7003;54688;52.376;16.744;2023-08-21T20:04:06;3;3;
67892;PMS7003;54688;52.376;16.744;2023-08-21T20:07:08;4;4;
67892;PMS7003;54688;52.376;16.744;2023-08-21T20:10:11;8;5;
67892;PMS7003;54688;52.376;16.744;2023-08-21T20:13:13;7;5;
67892;PMS7003;54688;52.376;16.744;2023-08-21T20:16:15;8;3;
67892;PMS7003;54688;52.376;16.744;2023-08-21T20:19:16;5;5;
67892;PMS7003;54688;52.376;16.744;2023-08-21T20:22:18;5;5;
67892;PMS7003;54688;52.376;16.744;2023-08-21T20:25:20;6;4;
67892;PMS7003;54688;52.376;16.744;2023-08-21T20:28:22;5;5;
67892;PMS7003;54688;52.376;16.744;2023-08-21T20:31:25;6;5;
67892;PMS7003;54688;52.376;16.744;2023-08-21T20:34:27;4;4;
67892;PMS7003;54688;52.376;16.744;2023-08-21T20:37:29;10;6;
67892;PMS7003;54688;52.376;16.744;2023-08-21T20:40:30;4;4;
67892;PMS7003;54688;52.376;16.744;2023-08-21T20:43:32;5;4;
67892;PMS7003;54688;52.376;16.744;2023-08-21T20:46:34;9;6;
67892;PMS7003;54688;52.376;16.744;2023-08-21T20:49:37;5;5;
67892;PMS7003;54688;52.376;16.744;2023-08-21T20:52:38;6;4;
67892;PMS7003;54688;52.376;16.744;2023-08-21T20:55:40;4;4;
67892;PMS7003;54688;52.376;16.744;2023-08-21T20:58:42;8;5;